Wetterstation Vordersexau
Wetterdaten: Woche 21.08.23 - 27.08.23 (KW34)
Datum Zeit Temp. A. Feuchte A. Luftdruck Regen Wind Richtung Taupunkt Windchill Windben
21.08.2023 00:00 24,2 C 88 % 1016,1 hPa 0,0 l/m 0,0 km/h (0 Bft) N-NW 22,1 C 24,2 C 0,0 km/h (0 Bft)
21.08.2023 01:00 22,8 C 92 % 1016,3 hPa 0,0 l/m 1,1 km/h (1 Bft) N 21,4 C 22,8 C 2,5 km/h (1 Bft)
21.08.2023 02:00 22,2 C 92 % 1016,2 hPa 0,0 l/m 0,0 km/h (0 Bft) N 20,8 C 22,2 C 0,0 km/h (0 Bft)
21.08.2023 03:00 21,7 C 94 % 1015,9 hPa 0,0 l/m 0,0 km/h (0 Bft) N 20,7 C 21,7 C 2,5 km/h (1 Bft)
21.08.2023 04:00 21,1 C 94 % 1016,0 hPa 0,0 l/m 0,0 km/h (0 Bft) N 20,1 C 21,1 C 0,0 km/h (0 Bft)
21.08.2023 05:00 20,9 C 94 % 1016,0 hPa 0,0 l/m 0,0 km/h (0 Bft) N 19,9 C 20,9 C 2,5 km/h (1 Bft)
21.08.2023 06:00 20,3 C 96 % 1016,2 hPa 0,0 l/m 0,0 km/h (0 Bft) N 19,6 C 20,3 C 0,0 km/h (0 Bft)
21.08.2023 07:00 20,2 C 95 % 1016,5 hPa 0,0 l/m 0,0 km/h (0 Bft) N 19,4 C 20,2 C 0,0 km/h (0 Bft)
21.08.2023 08:00 20,1 C 96 % 1016,9 hPa 0,0 l/m 0,0 km/h (0 Bft) N 19,4 C 20,1 C 0,0 km/h (0 Bft)
21.08.2023 09:00 22,5 C 90 % 1017,1 hPa 0,0 l/m 0,0 km/h (0 Bft) W 20,8 C 22,5 C 2,5 km/h (1 Bft)
21.08.2023 10:00 24,7 C 82 % 1017,3 hPa 0,0 l/m 1,1 km/h (1 Bft) W 21,4 C 24,7 C 3,6 km/h (1 Bft)
21.08.2023 11:00 26,8 C 76 % 1017,3 hPa 0,0 l/m 1,1 km/h (1 Bft) N 22,2 C 26,8 C 2,5 km/h (1 Bft)
21.08.2023 12:00 28,8 C 69 % 1017,0 hPa 0,0 l/m 0,0 km/h (0 Bft) W-NW 22,5 C 28,8 C 0,0 km/h (0 Bft)
21.08.2023 13:00 30,8 C 63 % 1016,7 hPa 0,0 l/m 2,5 km/h (1 Bft) W 22,9 C 30,8 C 3,6 km/h (1 Bft)
21.08.2023 14:00 31,6 C 61 % 1016,2 hPa 0,0 l/m 2,5 km/h (1 Bft) W 23,1 C 31,6 C 6,1 km/h (2 Bft)
21.08.2023 15:00 33,5 C 56 % 1015,7 hPa 0,0 l/m 6,1 km/h (2 Bft) NW 23,5 C 33,5 C 9,7 km/h (2 Bft)
21.08.2023 16:00 34,6 C 51 % 1015,5 hPa 0,0 l/m 5,0 km/h (1 Bft) W 22,9 C 34,6 C 6,1 km/h (2 Bft)
21.08.2023 17:00 34,5 C 48 % 1015,1 hPa 0,0 l/m 3,6 km/h (1 Bft) NW 21,9 C 34,5 C 6,1 km/h (2 Bft)
21.08.2023 18:00 34,9 C 48 % 1014,8 hPa 0,0 l/m 2,5 km/h (1 Bft) N-NO 22,2 C 34,9 C 3,6 km/h (1 Bft)
21.08.2023 19:00 33,3 C 50 % 1014,3 hPa 0,0 l/m 3,6 km/h (1 Bft) NO 21,4 C 33,3 C 6,1 km/h (2 Bft)
21.08.2023 20:00 31,9 C 54 % 1014,4 hPa 0,0 l/m 1,1 km/h (1 Bft) N 21,4 C 31,9 C 3,6 km/h (1 Bft)
21.08.2023 21:00 29,1 C 62 % 1014,6 hPa 0,0 l/m 0,0 km/h (0 Bft) N 21,1 C 29,1 C 0,0 km/h (0 Bft)
21.08.2023 22:00 26,3 C 71 % 1015,0 hPa 0,0 l/m 0,0 km/h (0 Bft) N 20,6 C 26,3 C 2,5 km/h (1 Bft)
21.08.2023 23:00 24,5 C 78 % 1015,3 hPa 0,0 l/m 0,0 km/h (0 Bft) O-SO 20,4 C 24,5 C 0,0 km/h (0 Bft)
22.08.2023 00:00 23,4 C 83 % 1015,2 hPa 0,0 l/m 1,1 km/h (1 Bft) O-SO 20,3 C 23,4 C 2,5 km/h (1 Bft)
22.08.2023 01:00 22,2 C 88 % 1015,3 hPa 0,0 l/m 0,0 km/h (0 Bft) N 20,1 C 22,2 C 2,5 km/h (1 Bft)
22.08.2023 02:00 22,4 C 86 % 1014,9 hPa 0,0 l/m 0,0 km/h (0 Bft) N 19,9 C 22,4 C 0,0 km/h (0 Bft)
22.08.2023 03:00 22,1 C 86 % 1014,7 hPa 0,0 l/m 0,0 km/h (0 Bft) N 19,6 C 22,1 C 0,0 km/h (0 Bft)
22.08.2023 04:00 21,0 C 89 % 1014,5 hPa 0,0 l/m 0,0 km/h (0 Bft) O 19,1 C 21,0 C 0,0 km/h (0 Bft)
22.08.2023 05:00 20,3 C 92 % 1014,4 hPa 0,0 l/m 1,1 km/h (1 Bft) O 19,0 C 20,3 C 2,5 km/h (1 Bft)
22.08.2023 06:00 19,9 C 93 % 1014,6 hPa 0,0 l/m 1,1 km/h (1 Bft) N 18,7 C 19,9 C 2,5 km/h (1 Bft)
22.08.2023 07:00 19,4 C 95 % 1014,7 hPa 0,0 l/m 0,0 km/h (0 Bft) N 18,6 C 19,4 C 0,0 km/h (0 Bft)
22.08.2023 08:00 19,5 C 94 % 1015,0 hPa 0,0 l/m 0,0 km/h (0 Bft) N 18,5 C 19,5 C 0,0 km/h (0 Bft)
22.08.2023 09:00 22,2 C 88 % 1015,2 hPa 0,0 l/m 0,0 km/h (0 Bft) W-NW 20,1 C 22,2 C 0,0 km/h (0 Bft)
22.08.2023 10:00 24,9 C 79 % 1015,1 hPa 0,0 l/m 2,5 km/h (1 Bft) SW 21,0 C 24,9 C 3,6 km/h (1 Bft)
22.08.2023 11:00 27,1 C 71 % 1015,1 hPa 0,0 l/m 3,6 km/h (1 Bft) W-NW 21,4 C 27,1 C 6,1 km/h (2 Bft)
22.08.2023 12:00 28,9 C 64 % 1015,1 hPa 0,0 l/m 1,1 km/h (1 Bft) W-NW 21,4 C 28,9 C 3,6 km/h (1 Bft)
22.08.2023 13:00 30,7 C 57 % 1014,6 hPa 0,0 l/m 2,5 km/h (1 Bft) W 21,2 C 30,7 C 3,6 km/h (1 Bft)
22.08.2023 14:00 32,3 C 54 % 1014,2 hPa 0,0 l/m 6,1 km/h (2 Bft) W-SW 21,8 C 32,3 C 7,2 km/h (2 Bft)
22.08.2023 15:00 33,3 C 50 % 1013,7 hPa 0,0 l/m 1,1 km/h (1 Bft) W 21,4 C 33,3 C 6,1 km/h (2 Bft)
22.08.2023 16:00 34,5 C 48 % 1013,4 hPa 0,0 l/m 5,0 km/h (1 Bft) NW 21,9 C 34,5 C 6,1 km/h (2 Bft)
22.08.2023 17:00 34,8 C 47 % 1012,9 hPa 0,0 l/m 3,6 km/h (1 Bft) N-NO 21,8 C 34,8 C 7,2 km/h (2 Bft)
22.08.2023 18:00 34,1 C 50 % 1012,9 hPa 0,0 l/m 1,1 km/h (1 Bft) N 22,2 C 34,1 C 3,6 km/h (1 Bft)
22.08.2023 19:00 32,5 C 53 % 1012,7 hPa 0,0 l/m 3,6 km/h (1 Bft) NO 21,7 C 32,5 C 6,1 km/h (2 Bft)
22.08.2023 20:00 31,1 C 57 % 1012,7 hPa 0,0 l/m 2,5 km/h (1 Bft) N-NO 21,6 C 31,1 C 3,6 km/h (1 Bft)
22.08.2023 21:00 29,3 C 60 % 1013,3 hPa 0,0 l/m 2,5 km/h (1 Bft) N-NO 20,7 C 29,3 C 6,1 km/h (2 Bft)
22.08.2023 22:00 27,1 C 67 % 1013,7 hPa 0,0 l/m 1,1 km/h (1 Bft) N 20,4 C 27,1 C 2,5 km/h (1 Bft)
22.08.2023 23:00 24,2 C 81 % 1014,2 hPa 0,0 l/m 0,0 km/h (0 Bft) N 20,7 C 24,2 C 0,0 km/h (0 Bft)
23.08.2023 00:00 23,8 C 80 % 1014,1 hPa 0,0 l/m 0,0 km/h (0 Bft) N-NO 20,1 C 23,8 C 0,0 km/h (0 Bft)
23.08.2023 01:00 22,1 C 86 % 1014,2 hPa 0,0 l/m 2,5 km/h (1 Bft) N 19,6 C 22,1 C 2,5 km/h (1 Bft)
23.08.2023 02:00 21,6 C 88 % 1014,1 hPa 0,0 l/m 0,0 km/h (0 Bft) N 19,5 C 21,6 C 2,5 km/h (1 Bft)
23.08.2023 03:00 21,2 C 87 % 1014,0 hPa 0,0 l/m 0,0 km/h (0 Bft) N 18,9 C 21,2 C 0,0 km/h (0 Bft)
23.08.2023 04:00 20,8 C 89 % 1014,2 hPa 0,0 l/m 0,0 km/h (0 Bft) N 18,9 C 20,8 C 2,5 km/h (1 Bft)
23.08.2023 05:00 20,0 C 92 % 1014,1 hPa 0,0 l/m 0,0 km/h (0 Bft) N 18,7 C 20,0 C 0,0 km/h (0 Bft)
23.08.2023 06:00 19,9 C 92 % 1014,0 hPa 0,0 l/m 0,0 km/h (0 Bft) N 18,6 C 19,9 C 0,0 km/h (0 Bft)
23.08.2023 07:00 19,4 C 93 % 1014,0 hPa 0,0 l/m 0,0 km/h (0 Bft) N 18,2 C 19,4 C 0,0 km/h (0 Bft)
23.08.2023 08:00 19,1 C 95 % 1014,3 hPa 0,0 l/m 0,0 km/h (0 Bft) N 18,3 C 19,1 C 0,0 km/h (0 Bft)
23.08.2023 09:00 21,0 C 88 % 1014,4 hPa 0,0 l/m 0,0 km/h (0 Bft) W 18,9 C 21,0 C 2,5 km/h (1 Bft)
23.08.2023 10:00 22,9 C 81 % 1014,6 hPa 0,0 l/m 2,5 km/h (1 Bft) W 19,5 C 22,9 C 3,6 km/h (1 Bft)
23.08.2023 11:00 25,2 C 73 % 1014,6 hPa 0,0 l/m 1,1 km/h (1 Bft) NW 20,0 C 25,2 C 2,5 km/h (1 Bft)
23.08.2023 12:00 26,4 C 68 % 1014,4 hPa 0,0 l/m 2,5 km/h (1 Bft) W 20,0 C 26,4 C 3,6 km/h (1 Bft)
23.08.2023 13:00 28,6 C 63 % 1014,2 hPa 0,0 l/m 7,2 km/h (2 Bft) W 20,8 C 28,5 C 11,2 km/h (2 Bft)
23.08.2023 14:00 30,2 C 55 % 1013,8 hPa 0,0 l/m 7,2 km/h (2 Bft) W 20,1 C 30,1 C 9,7 km/h (2 Bft)
23.08.2023 15:00 31,4 C 51 % 1013,7 hPa 0,0 l/m 9,7 km/h (2 Bft) NW 20,0 C 31,2 C 13,3 km/h (3 Bft)
23.08.2023 16:00 31,9 C 51 % 1013,5 hPa 0,0 l/m 5,0 km/h (1 Bft) W-NW 20,5 C 31,9 C 7,2 km/h (2 Bft)
23.08.2023 17:00 32,3 C 48 % 1013,2 hPa 0,0 l/m 6,1 km/h (2 Bft) W 19,9 C 32,3 C 9,7 km/h (2 Bft)
23.08.2023 18:00 32,5 C 47 % 1013,0 hPa 0,0 l/m 3,6 km/h (1 Bft) N 19,7 C 32,5 C 7,2 km/h (2 Bft)
23.08.2023 19:00 30,9 C 51 % 1012,9 hPa 0,0 l/m 0,0 km/h (0 Bft) W-NW 19,6 C 30,9 C 2,5 km/h (1 Bft)
23.08.2023 20:00 30,0 C 55 % 1012,8 hPa 0,0 l/m 2,5 km/h (1 Bft) N 19,9 C 30,0 C 3,6 km/h (1 Bft)
23.08.2023 21:00 26,3 C 67 % 1013,1 hPa 0,0 l/m 0,0 km/h (0 Bft) NW 19,7 C 26,3 C 0,0 km/h (0 Bft)
23.08.2023 22:00 24,2 C 75 % 1013,2 hPa 0,0 l/m 1,1 km/h (1 Bft) N 19,5 C 24,2 C 2,5 km/h (1 Bft)
23.08.2023 23:00 22,7 C 79 % 1013,7 hPa 0,0 l/m 0,0 km/h (0 Bft) N 18,9 C 22,7 C 0,0 km/h (0 Bft)
24.08.2023 00:00 21,8 C 81 % 1013,3 hPa 0,0 l/m 0,0 km/h (0 Bft) O-SO 18,4 C 21,8 C 0,0 km/h (0 Bft)
24.08.2023 01:00 20,9 C 81 % 1012,9 hPa 0,0 l/m 1,1 km/h (1 Bft) O 17,5 C 20,9 C 2,5 km/h (1 Bft)
24.08.2023 02:00 19,7 C 82 % 1012,6 hPa 0,0 l/m 1,1 km/h (1 Bft) O 16,5 C 19,7 C 3,6 km/h (1 Bft)
24.08.2023 03:00 18,9 C 83 % 1012,3 hPa 0,0 l/m 1,1 km/h (1 Bft) O 15,9 C 18,9 C 2,5 km/h (1 Bft)
24.08.2023 04:00 18,7 C 84 % 1011,6 hPa 0,0 l/m 2,5 km/h (1 Bft) N 15,9 C 18,7 C 3,6 km/h (1 Bft)
24.08.2023 05:00 19,2 C 83 % 1011,5 hPa 0,0 l/m 0,0 km/h (0 Bft) N 16,2 C 19,2 C 0,0 km/h (0 Bft)
24.08.2023 06:00 18,8 C 86 % 1010,8 hPa 0,0 l/m 0,0 km/h (0 Bft) N 16,4 C 18,8 C 0,0 km/h (0 Bft)
24.08.2023 07:00 18,8 C 86 % 1010,5 hPa 0,0 l/m 0,0 km/h (0 Bft) N 16,4 C 18,8 C 0,0 km/h (0 Bft)
24.08.2023 08:00 18,8 C 89 % 1011,0 hPa 0,0 l/m 0,0 km/h (0 Bft) O 16,9 C 18,8 C 0,0 km/h (0 Bft)
24.08.2023 09:00 20,0 C 85 % 1011,3 hPa 0,0 l/m 1,1 km/h (1 Bft) N 17,4 C 20,0 C 2,5 km/h (1 Bft)
24.08.2023 10:00 22,1 C 78 % 1011,2 hPa 0,0 l/m 0,0 km/h (0 Bft) W-NW 18,1 C 22,1 C 2,5 km/h (1 Bft)
24.08.2023 11:00 24,5 C 71 % 1011,1 hPa 0,0 l/m 1,1 km/h (1 Bft) S-SW 18,9 C 24,5 C 2,5 km/h (1 Bft)
24.08.2023 12:00 26,6 C 62 % 1010,6 hPa 0,0 l/m 5,0 km/h (1 Bft) SW 18,7 C 26,6 C 6,1 km/h (2 Bft)
24.08.2023 13:00 28,6 C 60 % 1009,3 hPa 0,0 l/m 3,6 km/h (1 Bft) N 20,1 C 28,6 C 6,1 km/h (2 Bft)
24.08.2023 14:00 29,8 C 57 % 1008,8 hPa 0,0 l/m 0,0 km/h (0 Bft) N 20,3 C 29,8 C 0,0 km/h (0 Bft)
24.08.2023 15:00 30,8 C 54 % 1008,0 hPa 0,0 l/m 0,0 km/h (0 Bft) W-SW 20,4 C 30,8 C 0,0 km/h (0 Bft)
24.08.2023 16:00 32,8 C 52 % 1006,7 hPa 0,0 l/m 5,0 km/h (1 Bft) N-NW 21,6 C 32,8 C 9,7 km/h (2 Bft)
24.08.2023 17:00 36,4 C 43 % 1006,0 hPa 0,0 l/m 1,1 km/h (1 Bft) N 21,8 C 36,4 C 6,1 km/h (2 Bft)
24.08.2023 18:00 32,6 C 53 % 1006,8 hPa 0,0 l/m 3,6 km/h (1 Bft) W 21,7 C 32,6 C 6,1 km/h (2 Bft)
24.08.2023 19:00 30,4 C 64 % 1006,8 hPa 0,0 l/m 3,6 km/h (1 Bft) W 22,8 C 30,4 C 6,1 km/h (2 Bft)
24.08.2023 20:00 28,3 C 71 % 1007,5 hPa 0,0 l/m 3,6 km/h (1 Bft) SO 22,5 C 28,3 C 3,6 km/h (1 Bft)
24.08.2023 21:00 20,3 C 97 % 1012,9 hPa 18,3 l/m 5,0 km/h (1 Bft) SO 19,8 C 20,3 C 7,2 km/h (2 Bft)
24.08.2023 22:00 21,0 C 98 % 1008,9 hPa 2,4 l/m 3,6 km/h (1 Bft) SO 20,7 C 21,0 C 7,2 km/h (2 Bft)
24.08.2023 23:00 20,6 C 95 % 1007,8 hPa 0,0 l/m 7,2 km/h (2 Bft) O 19,8 C 20,3 C 11,2 km/h (2 Bft)
25.08.2023 00:00 20,1 C 94 % 1007,7 hPa 3,6 l/m 2,5 km/h (1 Bft) NO 19,1 C 20,1 C 3,6 km/h (1 Bft)
25.08.2023 01:00 19,8 C 95 % 1008,4 hPa 0,9 l/m 2,5 km/h (1 Bft) SO 19,0 C 19,8 C 3,6 km/h (1 Bft)
25.08.2023 02:00 19,1 C 98 % 1008,9 hPa 0,0 l/m 1,1 km/h (1 Bft) N 18,8 C 19,1 C 2,5 km/h (1 Bft)
25.08.2023 03:00 18,8 C 99 % 1008,5 hPa 0,0 l/m 0,0 km/h (0 Bft) O 18,6 C 18,8 C 0,0 km/h (0 Bft)
25.08.2023 04:00 18,7 C 99 % 1007,8 hPa 0,0 l/m 1,1 km/h (1 Bft) N 18,5 C 18,7 C 3,6 km/h (1 Bft)
25.08.2023 05:00 18,6 C 99 % 1007,2 hPa 0,0 l/m 0,0 km/h (0 Bft) N 18,4 C 18,6 C 2,5 km/h (1 Bft)
25.08.2023 06:00 18,5 C 98 % 1006,0 hPa 0,0 l/m 0,0 km/h (0 Bft) N 18,2 C 18,5 C 0,0 km/h (0 Bft)
25.08.2023 07:00 18,5 C 98 % 1005,7 hPa 0,0 l/m 0,0 km/h (0 Bft) N 18,2 C 18,5 C 0,0 km/h (0 Bft)
25.08.2023 08:00 18,8 C 99 % 1007,2 hPa 0,0 l/m 0,0 km/h (0 Bft) N 18,6 C 18,8 C 2,5 km/h (1 Bft)
25.08.2023 09:00 19,7 C 97 % 1009,1 hPa 0,0 l/m 0,0 km/h (0 Bft) NO 19,2 C 19,7 C 3,6 km/h (1 Bft)
25.08.2023 10:00 19,5 C 98 % 1009,8 hPa 7,5 l/m 2,5 km/h (1 Bft) O-SO 19,2 C 19,5 C 3,6 km/h (1 Bft)
25.08.2023 11:00 19,7 C 98 % 1008,4 hPa 0,6 l/m 7,2 km/h (2 Bft) N 19,4 C 19,4 C 14,8 km/h (3 Bft)
25.08.2023 12:00 20,3 C 96 % 1009,9 hPa 0,0 l/m 0,0 km/h (0 Bft) SW 19,6 C 20,3 C 0,0 km/h (0 Bft)
25.08.2023 13:00 23,3 C 78 % 1009,7 hPa 0,3 l/m 7,2 km/h (2 Bft) S-SO 19,2 C 23,1 C 14,8 km/h (3 Bft)
25.08.2023 14:00 24,8 C 70 % 1008,3 hPa 0,0 l/m 9,7 km/h (2 Bft) W-NW 18,9 C 24,0 C 14,8 km/h (3 Bft)
25.08.2023 15:00 27,0 C 63 % 1006,7 hPa 0,0 l/m 2,5 km/h (1 Bft) W-SW 19,3 C 27,0 C 3,6 km/h (1 Bft)
25.08.2023 16:00 26,6 C 67 % 1006,7 hPa 0,0 l/m 2,5 km/h (1 Bft) W 20,0 C 26,6 C 3,6 km/h (1 Bft)
25.08.2023 17:00 26,7 C 70 % 1006,9 hPa 0,0 l/m 2,5 km/h (1 Bft) W-SW 20,8 C 26,7 C 3,6 km/h (1 Bft)
25.08.2023 18:00 27,7 C 56 % 1006,2 hPa 0,0 l/m 9,7 km/h (2 Bft) S-SW 18,1 C 27,2 C 13,3 km/h (3 Bft)
25.08.2023 19:00 27,6 C 62 % 1005,6 hPa 0,0 l/m 2,5 km/h (1 Bft) S-SW 19,6 C 27,6 C 3,6 km/h (1 Bft)
25.08.2023 20:00 25,7 C 67 % 1005,6 hPa 0,0 l/m 5,0 km/h (1 Bft) S-SW 19,1 C 25,7 C 6,1 km/h (2 Bft)
25.08.2023 21:00 22,6 C 82 % 1005,9 hPa 0,0 l/m 2,5 km/h (1 Bft) O-SO 19,4 C 22,6 C 3,6 km/h (1 Bft)
25.08.2023 22:00 21,1 C 89 % 1005,7 hPa 0,0 l/m 6,1 km/h (2 Bft) O-SO 19,2 C 21,1 C 9,7 km/h (2 Bft)
25.08.2023 23:00 20,0 C 95 % 1006,2 hPa 3,0 l/m 1,1 km/h (1 Bft) O-SO 19,2 C 20,0 C 2,5 km/h (1 Bft)
26.08.2023 00:00 19,6 C 96 % 1006,3 hPa 0,0 l/m 1,1 km/h (1 Bft) O-SO 18,9 C 19,6 C 2,5 km/h (1 Bft)
26.08.2023 01:00 19,7 C 97 % 1008,0 hPa 0,0 l/m 2,5 km/h (1 Bft) N 19,2 C 19,7 C 3,6 km/h (1 Bft)
26.08.2023 02:00 19,5 C 98 % 1007,2 hPa 9,0 l/m 0,0 km/h (0 Bft) N 19,2 C 19,5 C 2,5 km/h (1 Bft)
26.08.2023 03:00 19,6 C 99 % 1007,3 hPa 0,9 l/m 0,0 km/h (0 Bft) N 19,4 C 19,6 C 0,0 km/h (0 Bft)
26.08.2023 04:00 19,6 C 99 % 1007,8 hPa 1,8 l/m 0,0 km/h (0 Bft) N 19,4 C 19,6 C 2,5 km/h (1 Bft)
26.08.2023 05:00 19,4 C 99 % 1007,8 hPa 0,0 l/m 0,0 km/h (0 Bft) N 19,2 C 19,4 C 0,0 km/h (0 Bft)
26.08.2023 06:00 19,5 C 99 % 1008,1 hPa 0,0 l/m 0,0 km/h (0 Bft) N 19,3 C 19,5 C 0,0 km/h (0 Bft)
26.08.2023 07:00 19,5 C 99 % 1008,4 hPa 0,0 l/m 0,0 km/h (0 Bft) N 19,3 C 19,5 C 0,0 km/h (0 Bft)
26.08.2023 08:00 18,0 C 99 % 1008,7 hPa 0,0 l/m 0,0 km/h (0 Bft) N 17,8 C 18,0 C 0,0 km/h (0 Bft)
26.08.2023 09:00 17,9 C 98 % 1008,9 hPa 0,0 l/m 0,0 km/h (0 Bft) N 17,6 C 17,9 C 0,0 km/h (0 Bft)
26.08.2023 10:00 18,2 C 99 % 1008,8 hPa 0,0 l/m 0,0 km/h (0 Bft) N 18,0 C 18,2 C 0,0 km/h (0 Bft)
26.08.2023 11:00 18,9 C 95 % 1008,7 hPa 0,0 l/m 0,0 km/h (0 Bft) N 18,1 C 18,9 C 0,0 km/h (0 Bft)
26.08.2023 12:00 19,9 C 83 % 1008,6 hPa 0,0 l/m 0,0 km/h (0 Bft) O-SO 16,9 C 19,9 C 2,5 km/h (1 Bft)
26.08.2023 13:00 19,5 C 90 % 1008,7 hPa 0,0 l/m 1,1 km/h (1 Bft) N 17,8 C 19,5 C 2,5 km/h (1 Bft)
26.08.2023 14:00 18,7 C 93 % 1008,8 hPa 0,0 l/m 0,0 km/h (0 Bft) N 17,5 C 18,7 C 0,0 km/h (0 Bft)
26.08.2023 15:00 18,5 C 91 % 1009,2 hPa 1,5 l/m 0,0 km/h (0 Bft) W 17,0 C 18,5 C 0,0 km/h (0 Bft)
26.08.2023 16:00 18,2 C 92 % 1008,9 hPa 0,0 l/m 1,1 km/h (1 Bft) S-SW 16,9 C 18,2 C 2,5 km/h (1 Bft)
26.08.2023 17:00 19,1 C 86 % 1008,0 hPa 0,0 l/m 3,6 km/h (1 Bft) SO 16,7 C 19,1 C 6,1 km/h (2 Bft)
26.08.2023 18:00 18,7 C 86 % 1008,9 hPa 0,0 l/m 6,1 km/h (2 Bft) S-SO 16,3 C 18,7 C 7,2 km/h (2 Bft)
26.08.2023 19:00 18,8 C 83 % 1008,7 hPa 0,0 l/m 2,5 km/h (1 Bft) SO 15,8 C 18,8 C 3,6 km/h (1 Bft)
26.08.2023 20:00 18,7 C 86 % 1008,4 hPa 0,0 l/m 2,5 km/h (1 Bft) N 16,3 C 18,7 C 3,6 km/h (1 Bft)
26.08.2023 21:00 18,0 C 93 % 1008,6 hPa 0,0 l/m 0,0 km/h (0 Bft) N 16,8 C 18,0 C 2,5 km/h (1 Bft)
26.08.2023 22:00 17,2 C 96 % 1008,7 hPa 0,0 l/m 0,0 km/h (0 Bft) N 16,6 C 17,2 C 0,0 km/h (0 Bft)
26.08.2023 23:00 16,7 C 97 % 1008,3 hPa 0,0 l/m 0,0 km/h (0 Bft) N 16,2 C 16,7 C 0,0 km/h (0 Bft)
27.08.2023 00:00 16,3 C 98 % 1008,1 hPa 0,0 l/m 0,0 km/h (0 Bft) N 16,0 C 16,3 C 0,0 km/h (0 Bft)
27.08.2023 01:00 15,8 C 98 % 1007,4 hPa 0,0 l/m 0,0 km/h (0 Bft) N 15,5 C 15,8 C 0,0 km/h (0 Bft)
27.08.2023 02:00 15,7 C 98 % 1006,9 hPa 0,0 l/m 0,0 km/h (0 Bft) N 15,4 C 15,7 C 0,0 km/h (0 Bft)
27.08.2023 03:00 16,0 C 98 % 1006,8 hPa 0,0 l/m 0,0 km/h (0 Bft) N 15,7 C 16,0 C 0,0 km/h (0 Bft)
27.08.2023 04:00 16,0 C 97 % 1006,4 hPa 0,0 l/m 0,0 km/h (0 Bft) W-NW 15,5 C 16,0 C 2,5 km/h (1 Bft)
27.08.2023 05:00 16,2 C 95 % 1006,7 hPa 0,3 l/m 1,1 km/h (1 Bft) W-NW 15,4 C 16,2 C 3,6 km/h (1 Bft)
27.08.2023 06:00 15,9 C 98 % 1006,2 hPa 1,2 l/m 1,1 km/h (1 Bft) N 15,6 C 15,9 C 2,5 km/h (1 Bft)
27.08.2023 07:00 15,9 C 99 % 1006,3 hPa 0,0 l/m 0,0 km/h (0 Bft) N 15,7 C 15,9 C 0,0 km/h (0 Bft)
27.08.2023 08:00 15,8 C 99 % 1005,7 hPa 0,0 l/m 0,0 km/h (0 Bft) N 15,6 C 15,8 C 0,0 km/h (0 Bft)
27.08.2023 09:00 16,1 C 99 % 1006,0 hPa 0,0 l/m 0,0 km/h (0 Bft) N 15,9 C 16,1 C 2,5 km/h (1 Bft)
27.08.2023 10:00 16,6 C 97 % 1006,1 hPa 0,0 l/m 0,0 km/h (0 Bft) N 16,1 C 16,6 C 0,0 km/h (0 Bft)
27.08.2023 11:00 17,5 C 92 % 1006,8 hPa 0,0 l/m 0,0 km/h (0 Bft) N 16,2 C 17,5 C 0,0 km/h (0 Bft)
27.08.2023 12:00 18,2 C 88 % 1006,1 hPa 0,0 l/m 0,0 km/h (0 Bft) S 16,2 C 18,2 C 0,0 km/h (0 Bft)
27.08.2023 13:00 19,3 C 85 % 1006,2 hPa 0,0 l/m 2,5 km/h (1 Bft) W 16,7 C 19,3 C 6,1 km/h (2 Bft)
27.08.2023 14:00 20,0 C 80 % 1006,1 hPa 0,0 l/m 2,5 km/h (1 Bft) N 16,4 C 20,0 C 6,1 km/h (2 Bft)
27.08.2023 15:00 20,5 C 76 % 1006,2 hPa 0,0 l/m 0,0 km/h (0 Bft) NW 16,1 C 20,5 C 2,5 km/h (1 Bft)
27.08.2023 16:00 17,8 C 91 % 1006,8 hPa 0,0 l/m 3,6 km/h (1 Bft) N 16,3 C 17,8 C 11,2 km/h (2 Bft)
27.08.2023 17:00 16,9 C 92 % 1007,4 hPa 0,9 l/m 0,0 km/h (0 Bft) N 15,6 C 16,9 C 0,0 km/h (0 Bft)
27.08.2023 18:00 16,9 C 92 % 1007,4 hPa 0,3 l/m 0,0 km/h (0 Bft) N 15,6 C 16,9 C 0,0 km/h (0 Bft)
27.08.2023 19:00 16,6 C 89 % 1007,5 hPa 0,0 l/m 0,0 km/h (0 Bft) N 14,8 C 16,6 C 0,0 km/h (0 Bft)
27.08.2023 20:00 16,5 C 94 % 1007,5 hPa 0,0 l/m 0,0 km/h (0 Bft) O-SO 15,5 C 16,5 C 0,0 km/h (0 Bft)
27.08.2023 21:00 15,6 C 93 % 1008,1 hPa 0,0 l/m 2,5 km/h (1 Bft) O-SO 14,5 C 15,6 C 3,6 km/h (1 Bft)
27.08.2023 22:00 15,0 C 95 % 1009,0 hPa 0,0 l/m 2,5 km/h (1 Bft) N 14,2 C 15,0 C 3,6 km/h (1 Bft)
27.08.2023 23:00 14,4 C 97 % 1008,9 hPa 0,0 l/m 0,0 km/h (0 Bft) N 13,9 C 14,4 C 0,0 km/h (0 Bft)
Min-Datum _ 27.08.23 24.08.23 25.08.23 - 21.08.23 - 27.08.23 27.08.23 21.08.23
_ Min-Zeit 23:21 17:21 19:21 - 00:21 - 23:21 23:21 00:21
Minimum _ 14,4 C 43 % 1005,6 hPa - 0,0 km/h (0 Bft) - 13,9 C 14,4 C 0,0 km/h (0 Bft)
Max-Datum _ 24.08.23 25.08.23 21.08.23 24.08.23 23.08.23 - 21.08.23 24.08.23 25.08.23
_ Max-Zeit 17:21 03:21 10:21 21:21 15:21 - 15:21 17:21 11:21
Maximum _ 36,4 C 99 % 1017,3 hPa 18,3 l/m 9,7 km/h
NW (2 Bft)
- 23,5 C 36,4 C 14,8 km/h
N (3 Bft)
Durchschnitt _ 22,9 C 81 % 1011,0 hPa #52,5 l/m 1,6 km/h (1 Bft) W 19,0 C 22,8 C 3,1 km/h (1 Bft)
www.sexauwetter.de